sensor_id;sensor_type;location;lat;lon;timestamp;P1;durP1;ratioP1;P2;durP2;ratioP2
44750;SDS011;30477;48.224;11.470;2023-04-07T00:00:19;15.85;;;9.18;;
44750;SDS011;30477;48.224;11.470;2023-04-07T00:02:45;15.67;;;9.37;;
44750;SDS011;30477;48.224;11.470;2023-04-07T00:05:11;12.73;;;9.43;;
44750;SDS011;30477;48.224;11.470;2023-04-07T00:07:36;12.20;;;8.67;;
44750;SDS011;30477;48.224;11.470;2023-04-07T00:10:01;12.43;;;9.27;;
44750;SDS011;30477;48.224;11.470;2023-04-07T00:12:27;11.87;;;8.97;;
44750;SDS011;30477;48.224;11.470;2023-04-07T00:14:52;13.57;;;9.53;;
44750;SDS011;30477;48.224;11.470;2023-04-07T00:17:18;13.33;;;8.77;;
44750;SDS011;30477;48.224;11.470;2023-04-07T00:19:43;12.37;;;9.13;;
44750;SDS011;30477;48.224;11.470;2023-04-07T00:22:08;13.67;;;9.40;;
44750;SDS011;30477;48.224;11.470;2023-04-07T00:24:34;14.15;;;10.10;;
44750;SDS011;30477;48.224;11.470;2023-04-07T00:26:59;13.30;;;8.93;;
44750;SDS011;30477;48.224;11.470;2023-04-07T00:29:25;14.93;;;9.35;;
44750;SDS011;30477;48.224;11.470;2023-04-07T00:31:50;15.00;;;9.20;;
44750;SDS011;30477;48.224;11.470;2023-04-07T00:34:16;10.90;;;9.10;;
44750;SDS011;30477;48.224;11.470;2023-04-07T00:36:41;15.30;;;9.73;;
44750;SDS011;30477;48.224;11.470;2023-04-07T00:39:06;12.60;;;9.13;;
44750;SDS011;30477;48.224;11.470;2023-04-07T00:41:35;13.30;;;9.27;;
44750;SDS011;30477;48.224;11.470;2023-04-07T00:44:01;14.32;;;9.52;;
44750;SDS011;30477;48.224;11.470;2023-04-07T00:46:26;12.38;;;9.90;;
44750;SDS011;30477;48.224;11.470;2023-04-07T00:48:52;12.80;;;9.88;;
44750;SDS011;30477;48.224;11.470;2023-04-07T00:51:20;14.23;;;9.60;;
44750;SDS011;30477;48.224;11.470;2023-04-07T00:53:46;15.30;;;10.13;;
44750;SDS011;30477;48.224;11.470;2023-04-07T00:56:13;14.43;;;9.73;;
44750;SDS011;30477;48.224;11.470;2023-04-07T00:58:38;13.33;;;9.43;;
44750;SDS011;30477;48.224;11.470;2023-04-07T01:01:06;13.63;;;10.43;;
44750;SDS011;30477;48.224;11.470;2023-04-07T01:03:38;14.23;;;10.60;;
44750;SDS011;30477;48.224;11.470;2023-04-07T01:06:10;12.80;;;9.90;;
44750;SDS011;30477;48.224;11.470;2023-04-07T01:11:24;12.88;;;9.45;;
44750;SDS011;30477;48.224;11.470;2023-04-07T01:13:54;12.65;;;9.80;;
44750;SDS011;30477;48.224;11.470;2023-04-07T01:19:12;14.88;;;9.90;;
44750;SDS011;30477;48.224;11.470;2023-04-07T01:21:44;13.05;;;9.45;;
44750;SDS011;30477;48.224;11.470;2023-04-07T01:27:02;9.63;;;6.45;;
44750;SDS011;30477;48.224;11.470;2023-04-07T01:29:38;12.85;;;9.18;;
44750;SDS011;30477;48.224;11.470;2023-04-07T01:32:12;11.02;;;8.38;;
44750;SDS011;30477;48.224;11.470;2023-04-07T01:34:39;11.75;;;7.60;;
44750;SDS011;30477;48.224;11.470;2023-04-07T01:37:05;12.27;;;8.30;;
44750;SDS011;30477;48.224;11.470;2023-04-07T01:39:32;10.40;;;7.47;;
44750;SDS011;30477;48.224;11.470;2023-04-07T01:41:59;8.98;;;6.70;;
44750;SDS011;30477;48.224;11.470;2023-04-07T01:44:26;8.70;;;6.95;;
44750;SDS011;30477;48.224;11.470;2023-04-07T01:46:53;9.90;;;6.60;;
44750;SDS011;30477;48.224;11.470;2023-04-07T01:49:20;9.73;;;7.15;;
44750;SDS011;30477;48.224;11.470;2023-04-07T01:51:47;10.60;;;6.93;;
44750;SDS011;30477;48.224;11.470;2023-04-07T01:54:14;9.45;;;6.45;;
44750;SDS011;30477;48.224;11.470;2023-04-07T01:56:41;10.30;;;7.22;;
44750;SDS011;30477;48.224;11.470;2023-04-07T01:59:07;8.63;;;6.47;;
44750;SDS011;30477;48.224;11.470;2023-04-07T02:01:33;8.90;;;5.70;;
44750;SDS011;30477;48.224;11.470;2023-04-07T02:09:29;7.50;;;6.15;;
44750;SDS011;30477;48.224;11.470;2023-04-07T02:11:57;8.00;;;6.10;;
44750;SDS011;30477;48.224;11.470;2023-04-07T02:14:26;7.63;;;5.82;;
44750;SDS011;30477;48.224;11.470;2023-04-07T02:16:52;10.48;;;6.22;;
44750;SDS011;30477;48.224;11.470;2023-04-07T02:19:17;7.55;;;5.50;;
44750;SDS011;30477;48.224;11.470;2023-04-07T02:21:43;8.27;;;6.03;;
44750;SDS011;30477;48.224;11.470;2023-04-07T02:24:10;9.18;;;6.38;;
44750;SDS011;30477;48.224;11.470;2023-04-07T02:26:36;7.25;;;6.07;;
44750;SDS011;30477;48.224;11.470;2023-04-07T02:29:02;8.80;;;6.47;;
44750;SDS011;30477;48.224;11.470;2023-04-07T02:31:28;8.38;;;6.22;;
44750;SDS011;30477;48.224;11.470;2023-04-07T02:33:54;9.32;;;6.22;;
44750;SDS011;30477;48.224;11.470;2023-04-07T02:36:19;9.53;;;6.10;;
44750;SDS011;30477;48.224;11.470;2023-04-07T02:38:45;9.47;;;6.00;;
44750;SDS011;30477;48.224;11.470;2023-04-07T02:41:10;10.07;;;6.50;;
44750;SDS011;30477;48.224;11.470;2023-04-07T02:43:35;10.53;;;5.93;;
44750;SDS011;30477;48.224;11.470;2023-04-07T02:46:01;6.77;;;5.37;;
44750;SDS011;30477;48.224;11.470;2023-04-07T02:48:26;6.73;;;5.23;;
44750;SDS011;30477;48.224;11.470;2023-04-07T02:50:51;7.13;;;5.40;;
44750;SDS011;30477;48.224;11.470;2023-04-07T02:53:17;7.37;;;6.00;;
44750;SDS011;30477;48.224;11.470;2023-04-07T02:55:42;8.37;;;5.70;;
44750;SDS011;30477;48.224;11.470;2023-04-07T02:58:07;8.03;;;5.77;;
44750;SDS011;30477;48.224;11.470;2023-04-07T03:00:33;9.37;;;5.70;;
44750;SDS011;30477;48.224;11.470;2023-04-07T03:02:58;6.70;;;5.40;;
44750;SDS011;30477;48.224;11.470;2023-04-07T03:05:24;7.87;;;4.93;;
44750;SDS011;30477;48.224;11.470;2023-04-07T03:07:49;7.70;;;4.90;;
44750;SDS011;30477;48.224;11.470;2023-04-07T03:10:14;6.37;;;5.17;;
44750;SDS011;30477;48.224;11.470;2023-04-07T03:12:40;6.50;;;4.83;;
44750;SDS011;30477;48.224;11.470;2023-04-07T03:15:07;6.47;;;4.90;;
44750;SDS011;30477;48.224;11.470;2023-04-07T03:17:32;6.15;;;4.68;;
44750;SDS011;30477;48.224;11.470;2023-04-07T03:19:58;7.23;;;4.87;;
44750;SDS011;30477;48.224;11.470;2023-04-07T03:22:23;6.53;;;5.23;;
44750;SDS011;30477;48.224;11.470;2023-04-07T03:24:48;6.00;;;4.87;;
44750;SDS011;30477;48.224;11.470;2023-04-07T03:27:14;7.43;;;4.70;;
44750;SDS011;30477;48.224;11.470;2023-04-07T03:29:41;7.68;;;4.95;;
44750;SDS011;30477;48.224;11.470;2023-04-07T03:32:06;6.50;;;5.53;;
44750;SDS011;30477;48.224;11.470;2023-04-07T03:34:32;8.17;;;5.20;;
44750;SDS011;30477;48.224;11.470;2023-04-07T03:36:57;6.77;;;5.30;;
44750;SDS011;30477;48.224;11.470;2023-04-07T03:39:22;6.63;;;4.90;;
44750;SDS011;30477;48.224;11.470;2023-04-07T03:41:48;6.50;;;4.63;;
44750;SDS011;30477;48.224;11.470;2023-04-07T03:44:13;6.33;;;4.93;;
44750;SDS011;30477;48.224;11.470;2023-04-07T03:46:38;7.20;;;5.50;;
44750;SDS011;30477;48.224;11.470;2023-04-07T03:49:04;7.77;;;5.37;;
44750;SDS011;30477;48.224;11.470;2023-04-07T03:51:30;8.68;;;4.90;;
44750;SDS011;30477;48.224;11.470;2023-04-07T03:53:56;6.82;;;5.25;;
44750;SDS011;30477;48.224;11.470;2023-04-07T03:56:22;6.50;;;5.00;;
44750;SDS011;30477;48.224;11.470;2023-04-07T04:01:13;6.97;;;5.50;;
44750;SDS011;30477;48.224;11.470;2023-04-07T04:03:39;6.10;;;4.90;;
44750;SDS011;30477;48.224;11.470;2023-04-07T04:06:04;7.43;;;5.70;;
44750;SDS011;30477;48.224;11.470;2023-04-07T04:08:30;7.53;;;5.47;;
44750;SDS011;30477;48.224;11.470;2023-04-07T04:10:55;8.10;;;6.10;;
44750;SDS011;30477;48.224;11.470;2023-04-07T04:13:21;8.23;;;5.60;;
44750;SDS011;30477;48.224;11.470;2023-04-07T04:15:46;7.83;;;5.67;;
44750;SDS011;30477;48.224;11.470;2023-04-07T04:18:11;7.23;;;5.70;;
44750;SDS011;30477;48.224;11.470;2023-04-07T04:20:37;8.13;;;5.57;;
44750;SDS011;30477;48.224;11.470;2023-04-07T04:23:02;6.70;;;5.20;;
44750;SDS011;30477;48.224;11.470;2023-04-07T04:25:28;9.85;;;5.47;;
44750;SDS011;30477;48.224;11.470;2023-04-07T04:27:53;7.30;;;5.73;;
44750;SDS011;30477;48.224;11.470;2023-04-07T04:30:18;7.00;;;5.50;;
44750;SDS011;30477;48.224;11.470;2023-04-07T04:32:44;7.50;;;5.50;;
44750;SDS011;30477;48.224;11.470;2023-04-07T04:35:09;9.10;;;5.53;;
44750;SDS011;30477;48.224;11.470;2023-04-07T04:37:35;7.93;;;5.13;;
44750;SDS011;30477;48.224;11.470;2023-04-07T04:40:00;8.17;;;5.77;;
44750;SDS011;30477;48.224;11.470;2023-04-07T04:42:26;9.63;;;6.10;;
44750;SDS011;30477;48.224;11.470;2023-04-07T04:44:52;8.90;;;6.47;;
44750;SDS011;30477;48.224;11.470;2023-04-07T04:47:17;10.93;;;6.57;;
44750;SDS011;30477;48.224;11.470;2023-04-07T04:49:43;11.75;;;7.57;;
44750;SDS011;30477;48.224;11.470;2023-04-07T04:52:08;11.90;;;7.57;;
44750;SDS011;30477;48.224;11.470;2023-04-07T04:54:34;10.80;;;7.13;;
44750;SDS011;30477;48.224;11.470;2023-04-07T04:56:59;12.00;;;7.67;;
44750;SDS011;30477;48.224;11.470;2023-04-07T04:59:25;11.23;;;7.18;;
44750;SDS011;30477;48.224;11.470;2023-04-07T05:01:51;11.17;;;7.50;;
44750;SDS011;30477;48.224;11.470;2023-04-07T05:04:16;10.80;;;7.50;;
44750;SDS011;30477;48.224;11.470;2023-04-07T05:06:41;10.83;;;7.67;;
44750;SDS011;30477;48.224;11.470;2023-04-07T05:09:07;9.23;;;7.40;;
44750;SDS011;30477;48.224;11.470;2023-04-07T05:11:32;10.70;;;7.67;;
44750;SDS011;30477;48.224;11.470;2023-04-07T05:13:57;9.13;;;7.50;;
44750;SDS011;30477;48.224;11.470;2023-04-07T05:16:23;12.40;;;7.93;;
44750;SDS011;30477;48.224;11.470;2023-04-07T05:18:48;9.10;;;7.57;;
44750;SDS011;30477;48.224;11.470;2023-04-07T05:21:13;11.00;;;7.97;;
44750;SDS011;30477;48.224;11.470;2023-04-07T05:23:39;10.57;;;7.60;;
44750;SDS011;30477;48.224;11.470;2023-04-07T05:26:04;10.83;;;7.93;;
44750;SDS011;30477;48.224;11.470;2023-04-07T05:28:30;11.07;;;7.97;;
44750;SDS011;30477;48.224;11.470;2023-04-07T05:30:55;10.53;;;8.10;;
44750;SDS011;30477;48.224;11.470;2023-04-07T05:33:20;11.00;;;8.10;;
44750;SDS011;30477;48.224;11.470;2023-04-07T05:35:45;10.10;;;7.27;;
44750;SDS011;30477;48.224;11.470;2023-04-07T05:38:11;10.83;;;8.23;;
44750;SDS011;30477;48.224;11.470;2023-04-07T05:40:38;12.23;;;8.13;;
44750;SDS011;30477;48.224;11.470;2023-04-07T05:43:04;10.77;;;7.63;;
44750;SDS011;30477;48.224;11.470;2023-04-07T05:45:29;11.53;;;8.00;;
44750;SDS011;30477;48.224;11.470;2023-04-07T05:47:55;11.77;;;7.87;;
44750;SDS011;30477;48.224;11.470;2023-04-07T05:50:20;10.83;;;8.53;;
44750;SDS011;30477;48.224;11.470;2023-04-07T05:52:45;11.20;;;8.10;;
44750;SDS011;30477;48.224;11.470;2023-04-07T05:55:11;10.43;;;8.10;;
44750;SDS011;30477;48.224;11.470;2023-04-07T05:57:36;12.73;;;8.60;;
44750;SDS011;30477;48.224;11.470;2023-04-07T06:00:02;14.00;;;8.43;;
44750;SDS011;30477;48.224;11.470;2023-04-07T06:02:28;11.35;;;8.40;;
44750;SDS011;30477;48.224;11.470;2023-04-07T06:04:53;12.10;;;8.70;;
44750;SDS011;30477;48.224;11.470;2023-04-07T06:07:19;11.50;;;8.60;;
44750;SDS011;30477;48.224;11.470;2023-04-07T06:09:44;11.33;;;8.10;;
44750;SDS011;30477;48.224;11.470;2023-04-07T06:12:10;11.13;;;8.23;;
44750;SDS011;30477;48.224;11.470;2023-04-07T06:14:36;11.10;;;8.38;;
44750;SDS011;30477;48.224;11.470;2023-04-07T06:17:02;13.20;;;8.73;;
44750;SDS011;30477;48.224;11.470;2023-04-07T06:19:27;14.77;;;9.00;;
44750;SDS011;30477;48.224;11.470;2023-04-07T06:21:52;14.07;;;8.57;;
44750;SDS011;30477;48.224;11.470;2023-04-07T06:24:18;11.90;;;8.87;;
44750;SDS011;30477;48.224;11.470;2023-04-07T06:26:46;14.63;;;9.07;;
44750;SDS011;30477;48.224;11.470;2023-04-07T06:29:12;11.75;;;9.00;;
44750;SDS011;30477;48.224;11.470;2023-04-07T06:31:37;12.33;;;8.93;;
44750;SDS011;30477;48.224;11.470;2023-04-07T06:34:03;12.17;;;8.80;;
44750;SDS011;30477;48.224;11.470;2023-04-07T06:36:28;13.13;;;8.27;;
44750;SDS011;30477;48.224;11.470;2023-04-07T06:38:53;12.63;;;9.20;;
44750;SDS011;30477;48.224;11.470;2023-04-07T06:41:19;11.37;;;8.47;;
44750;SDS011;30477;48.224;11.470;2023-04-07T06:43:46;12.00;;;8.53;;
44750;SDS011;30477;48.224;11.470;2023-04-07T06:46:13;11.27;;;8.90;;
44750;SDS011;30477;48.224;11.470;2023-04-07T06:48:38;10.47;;;8.10;;
44750;SDS011;30477;48.224;11.470;2023-04-07T06:51:04;11.03;;;8.50;;
44750;SDS011;30477;48.224;11.470;2023-04-07T06:53:29;11.07;;;8.33;;
44750;SDS011;30477;48.224;11.470;2023-04-07T06:56:04;10.63;;;8.40;;
44750;SDS011;30477;48.224;11.470;2023-04-07T06:58:34;15.70;;;8.55;;
44750;SDS011;30477;48.224;11.470;2023-04-07T07:01:00;11.18;;;8.57;;
44750;SDS011;30477;48.224;11.470;2023-04-07T07:03:26;11.82;;;8.55;;
44750;SDS011;30477;48.224;11.470;2023-04-07T07:05:53;11.98;;;9.20;;
44750;SDS011;30477;48.224;11.470;2023-04-07T07:08:20;10.88;;;8.75;;
44750;SDS011;30477;48.224;11.470;2023-04-07T07:10:46;12.80;;;8.40;;
44750;SDS011;30477;48.224;11.470;2023-04-07T07:13:11;12.07;;;8.60;;
44750;SDS011;30477;48.224;11.470;2023-04-07T07:15:37;10.00;;;8.07;;
44750;SDS011;30477;48.224;11.470;2023-04-07T07:18:02;10.93;;;8.37;;
44750;SDS011;30477;48.224;11.470;2023-04-07T07:20:27;10.20;;;8.20;;
44750;SDS011;30477;48.224;11.470;2023-04-07T07:22:53;11.60;;;8.47;;
44750;SDS011;30477;48.224;11.470;2023-04-07T07:25:18;10.17;;;8.20;;
44750;SDS011;30477;48.224;11.470;2023-04-07T07:27:44;11.60;;;8.85;;
44750;SDS011;30477;48.224;11.470;2023-04-07T07:30:09;10.27;;;8.50;;
44750;SDS011;30477;48.224;11.470;2023-04-07T07:32:35;11.50;;;9.00;;
44750;SDS011;30477;48.224;11.470;2023-04-07T07:35:00;12.03;;;9.27;;
44750;SDS011;30477;48.224;11.470;2023-04-07T07:37:26;10.97;;;8.97;;
44750;SDS011;30477;48.224;11.470;2023-04-07T07:39:52;12.57;;;9.00;;
44750;SDS011;30477;48.224;11.470;2023-04-07T07:42:17;12.75;;;8.85;;
44750;SDS011;30477;48.224;11.470;2023-04-07T07:44:43;11.33;;;8.80;;
44750;SDS011;30477;48.224;11.470;2023-04-07T07:47:08;12.43;;;8.50;;
44750;SDS011;30477;48.224;11.470;2023-04-07T07:49:33;11.53;;;8.83;;
44750;SDS011;30477;48.224;11.470;2023-04-07T07:51:59;10.83;;;8.53;;
44750;SDS011;30477;48.224;11.470;2023-04-07T07:54:24;10.37;;;8.60;;
44750;SDS011;30477;48.224;11.470;2023-04-07T07:56:50;12.60;;;9.27;;
44750;SDS011;30477;48.224;11.470;2023-04-07T07:59:16;11.85;;;9.10;;
44750;SDS011;30477;48.224;11.470;2023-04-07T08:01:42;11.37;;;8.83;;
44750;SDS011;30477;48.224;11.470;2023-04-07T08:04:07;12.47;;;8.30;;
44750;SDS011;30477;48.224;11.470;2023-04-07T08:06:33;11.93;;;8.63;;
44750;SDS011;30477;48.224;11.470;2023-04-07T08:08:58;11.67;;;9.53;;
44750;SDS011;30477;48.224;11.470;2023-04-07T08:11:23;11.17;;;9.07;;
44750;SDS011;30477;48.224;11.470;2023-04-07T08:13:49;10.47;;;8.40;;
44750;SDS011;30477;48.224;11.470;2023-04-07T08:16:14;11.77;;;8.77;;
44750;SDS011;30477;48.224;11.470;2023-04-07T08:18:40;11.50;;;8.63;;
44750;SDS011;30477;48.224;11.470;2023-04-07T08:21:05;12.73;;;8.60;;
44750;SDS011;30477;48.224;11.470;2023-04-07T08:23:31;10.77;;;8.13;;
44750;SDS011;30477;48.224;11.470;2023-04-07T08:25:56;10.50;;;8.30;;
44750;SDS011;30477;48.224;11.470;2023-04-07T08:28:22;10.10;;;8.03;;
44750;SDS011;30477;48.224;11.470;2023-04-07T08:30:48;10.68;;;7.70;;
44750;SDS011;30477;48.224;11.470;2023-04-07T08:33:14;9.23;;;7.90;;
44750;SDS011;30477;48.224;11.470;2023-04-07T08:35:39;11.93;;;8.10;;
44750;SDS011;30477;48.224;11.470;2023-04-07T08:38:05;10.23;;;8.63;;
44750;SDS011;30477;48.224;11.470;2023-04-07T08:40:31;12.43;;;8.13;;
44750;SDS011;30477;48.224;11.470;2023-04-07T08:45:24;10.00;;;8.30;;
44750;SDS011;30477;48.224;11.470;2023-04-07T08:47:50;12.13;;;8.73;;
44750;SDS011;30477;48.224;11.470;2023-04-07T08:50:21;10.30;;;8.45;;
44750;SDS011;30477;48.224;11.470;2023-04-07T08:52:52;9.68;;;8.32;;
44750;SDS011;30477;48.224;11.470;2023-04-07T08:55:18;12.35;;;8.60;;
44750;SDS011;30477;48.224;11.470;2023-04-07T08:57:44;14.38;;;9.18;;
44750;SDS011;30477;48.224;11.470;2023-04-07T09:02:37;11.02;;;8.35;;
44750;SDS011;30477;48.224;11.470;2023-04-07T09:05:05;10.35;;;8.60;;
44750;SDS011;30477;48.224;11.470;2023-04-07T09:07:34;10.85;;;9.05;;
44750;SDS011;30477;48.224;11.470;2023-04-07T09:10:01;11.77;;;8.25;;
44750;SDS011;30477;48.224;11.470;2023-04-07T09:12:27;11.73;;;8.82;;
44750;SDS011;30477;48.224;11.470;2023-04-07T09:17:19;11.32;;;8.50;;
44750;SDS011;30477;48.224;11.470;2023-04-07T09:19:45;11.45;;;8.38;;
44750;SDS011;30477;48.224;11.470;2023-04-07T09:22:11;10.80;;;8.40;;
44750;SDS011;30477;48.224;11.470;2023-04-07T09:24:38;12.63;;;8.43;;
44750;SDS011;30477;48.224;11.470;2023-04-07T09:27:11;10.52;;;8.93;;
44750;SDS011;30477;48.224;11.470;2023-04-07T09:32:08;9.75;;;8.05;;
44750;SDS011;30477;48.224;11.470;2023-04-07T09:34:35;9.68;;;8.10;;
44750;SDS011;30477;48.224;11.470;2023-04-07T09:37:02;10.25;;;8.52;;
44750;SDS011;30477;48.224;11.470;2023-04-07T09:39:28;11.13;;;8.63;;
44750;SDS011;30477;48.224;11.470;2023-04-07T09:41:54;10.35;;;8.07;;
44750;SDS011;30477;48.224;11.470;2023-04-07T09:44:22;11.68;;;7.78;;
44750;SDS011;30477;48.224;11.470;2023-04-07T09:46:49;10.95;;;8.40;;
44750;SDS011;30477;48.224;11.470;2023-04-07T09:49:19;13.65;;;9.25;;
44750;SDS011;30477;48.224;11.470;2023-04-07T09:51:58;13.68;;;8.65;;
44750;SDS011;30477;48.224;11.470;2023-04-07T09:54:37;10.52;;;8.80;;
44750;SDS011;30477;48.224;11.470;2023-04-07T09:57:07;12.45;;;8.75;;
44750;SDS011;30477;48.224;11.470;2023-04-07T09:59:34;10.25;;;8.43;;
44750;SDS011;30477;48.224;11.470;2023-04-07T10:02:01;10.07;;;8.77;;
44750;SDS011;30477;48.224;11.470;2023-04-07T10:04:27;11.07;;;9.18;;
44750;SDS011;30477;48.224;11.470;2023-04-07T10:06:53;11.02;;;8.32;;
44750;SDS011;30477;48.224;11.470;2023-04-07T10:09:22;9.95;;;8.82;;
44750;SDS011;30477;48.224;11.470;2023-04-07T10:11:53;9.63;;;8.45;;
44750;SDS011;30477;48.224;11.470;2023-04-07T10:14:21;9.50;;;8.48;;
44750;SDS011;30477;48.224;11.470;2023-04-07T10:16:50;11.15;;;8.32;;
44750;SDS011;30477;48.224;11.470;2023-04-07T10:19:15;11.82;;;8.70;;
44750;SDS011;30477;48.224;11.470;2023-04-07T10:21:42;10.55;;;8.90;;
44750;SDS011;30477;48.224;11.470;2023-04-07T10:26:45;11.27;;;7.77;;
44750;SDS011;30477;48.224;11.470;2023-04-07T10:29:15;11.90;;;8.13;;
44750;SDS011;30477;48.224;11.470;2023-04-07T10:31:43;10.93;;;8.93;;
44750;SDS011;30477;48.224;11.470;2023-04-07T10:34:10;12.27;;;9.07;;
44750;SDS011;30477;48.224;11.470;2023-04-07T10:36:35;10.13;;;8.17;;
44750;SDS011;30477;48.224;11.470;2023-04-07T10:39:37;10.35;;;8.00;;
44750;SDS011;30477;48.224;11.470;2023-04-07T10:42:02;10.63;;;8.30;;
44750;SDS011;30477;48.224;11.470;2023-04-07T10:47:03;10.25;;;8.35;;
44750;SDS011;30477;48.224;11.470;2023-04-07T10:49:29;9.35;;;8.25;;
44750;SDS011;30477;48.224;11.470;2023-04-07T10:54:36;12.80;;;9.00;;
44750;SDS011;30477;48.224;11.470;2023-04-07T10:59:28;8.70;;;7.80;;
44750;SDS011;30477;48.224;11.470;2023-04-07T11:04:44;11.23;;;8.02;;
44750;SDS011;30477;48.224;11.470;2023-04-07T11:07:10;10.10;;;7.95;;
44750;SDS011;30477;48.224;11.470;2023-04-07T11:09:37;10.38;;;8.48;;
44750;SDS011;30477;48.224;11.470;2023-04-07T11:12:02;8.93;;;7.67;;
44750;SDS011;30477;48.224;11.470;2023-04-07T11:14:29;13.20;;;8.25;;
44750;SDS011;30477;48.224;11.470;2023-04-07T11:16:55;9.80;;;8.07;;
44750;SDS011;30477;48.224;11.470;2023-04-07T11:21:47;9.05;;;7.22;;
44750;SDS011;30477;48.224;11.470;2023-04-07T11:26:57;8.70;;;7.38;;
44750;SDS011;30477;48.224;11.470;2023-04-07T11:29:27;8.97;;;7.20;;
44750;SDS011;30477;48.224;11.470;2023-04-07T11:31:57;8.57;;;7.63;;
44750;SDS011;30477;48.224;11.470;2023-04-07T11:34:30;12.18;;;8.30;;
44750;SDS011;30477;48.224;11.470;2023-04-07T11:36:57;12.20;;;8.45;;
44750;SDS011;30477;48.224;11.470;2023-04-07T11:39:27;10.48;;;8.63;;
44750;SDS011;30477;48.224;11.470;2023-04-07T11:41:55;10.63;;;8.55;;
44750;SDS011;30477;48.224;11.470;2023-04-07T11:44:21;10.70;;;9.00;;
44750;SDS011;30477;48.224;11.470;2023-04-07T11:49:18;9.73;;;8.45;;
44750;SDS011;30477;48.224;11.470;2023-04-07T11:51:44;9.52;;;8.52;;
44750;SDS011;30477;48.224;11.470;2023-04-07T11:56:43;9.98;;;8.35;;
44750;SDS011;30477;48.224;11.470;2023-04-07T11:59:19;11.57;;;8.82;;
44750;SDS011;30477;48.224;11.470;2023-04-07T12:01:46;9.98;;;8.07;;
44750;SDS011;30477;48.224;11.470;2023-04-07T12:04:12;10.52;;;8.40;;
44750;SDS011;30477;48.224;11.470;2023-04-07T12:06:41;11.27;;;8.38;;
44750;SDS011;30477;48.224;11.470;2023-04-07T12:09:08;10.07;;;8.32;;
44750;SDS011;30477;48.224;11.470;2023-04-07T12:11:50;9.55;;;8.52;;
44750;SDS011;30477;48.224;11.470;2023-04-07T12:14:15;10.30;;;8.83;;
44750;SDS011;30477;48.224;11.470;2023-04-07T12:16:41;8.30;;;7.47;;
44750;SDS011;30477;48.224;11.470;2023-04-07T12:19:06;15.40;;;8.88;;
44750;SDS011;30477;48.224;11.470;2023-04-07T12:21:32;9.93;;;8.50;;
44750;SDS011;30477;48.224;11.470;2023-04-07T12:23:57;10.10;;;8.27;;
44750;SDS011;30477;48.224;11.470;2023-04-07T12:26:22;11.40;;;8.93;;
44750;SDS011;30477;48.224;11.470;2023-04-07T12:31:14;12.07;;;8.60;;
44750;SDS011;30477;48.224;11.470;2023-04-07T12:33:39;12.40;;;9.40;;
44750;SDS011;30477;48.224;11.470;2023-04-07T12:36:05;11.30;;;9.27;;
44750;SDS011;30477;48.224;11.470;2023-04-07T12:38:30;8.95;;;7.88;;
44750;SDS011;30477;48.224;11.470;2023-04-07T12:40:56;11.67;;;9.00;;
44750;SDS011;30477;48.224;11.470;2023-04-07T12:43:27;10.77;;;9.13;;
44750;SDS011;30477;48.224;11.470;2023-04-07T12:45:53;11.50;;;9.18;;
44750;SDS011;30477;48.224;11.470;2023-04-07T12:48:18;9.87;;;8.87;;
44750;SDS011;30477;48.224;11.470;2023-04-07T12:50:43;8.50;;;7.70;;
44750;SDS011;30477;48.224;11.470;2023-04-07T12:53:09;9.02;;;7.35;;
44750;SDS011;30477;48.224;11.470;2023-04-07T12:55:34;9.00;;;8.00;;
44750;SDS011;30477;48.224;11.470;2023-04-07T12:58:00;12.00;;;8.45;;
44750;SDS011;30477;48.224;11.470;2023-04-07T13:00:26;10.63;;;8.50;;
44750;SDS011;30477;48.224;11.470;2023-04-07T13:02:51;9.17;;;7.63;;
44750;SDS011;30477;48.224;11.470;2023-04-07T13:05:16;11.30;;;7.47;;
44750;SDS011;30477;48.224;11.470;2023-04-07T13:07:42;8.73;;;7.20;;
44750;SDS011;30477;48.224;11.470;2023-04-07T13:10:08;9.77;;;6.63;;
44750;SDS011;30477;48.224;11.470;2023-04-07T13:12:34;9.23;;;7.03;;
44750;SDS011;30477;48.224;11.470;2023-04-07T13:15:00;10.63;;;7.30;;
44750;SDS011;30477;48.224;11.470;2023-04-07T13:17:26;14.85;;;8.57;;
44750;SDS011;30477;48.224;11.470;2023-04-07T13:19:52;10.25;;;6.82;;
44750;SDS011;30477;48.224;11.470;2023-04-07T13:22:18;8.37;;;7.03;;
44750;SDS011;30477;48.224;11.470;2023-04-07T13:24:43;9.40;;;7.13;;
44750;SDS011;30477;48.224;11.470;2023-04-07T13:27:08;8.97;;;5.97;;
44750;SDS011;30477;48.224;11.470;2023-04-07T13:29:34;10.15;;;6.80;;
44750;SDS011;30477;48.224;11.470;2023-04-07T13:32:04;7.53;;;6.70;;
44750;SDS011;30477;48.224;11.470;2023-04-07T13:34:30;8.27;;;6.88;;
44750;SDS011;30477;48.224;11.470;2023-04-07T13:36:56;7.83;;;7.03;;
44750;SDS011;30477;48.224;11.470;2023-04-07T13:39:21;7.50;;;6.80;;
44750;SDS011;30477;48.224;11.470;2023-04-07T13:41:46;8.17;;;6.83;;
44750;SDS011;30477;48.224;11.470;2023-04-07T13:44:12;8.27;;;7.23;;
44750;SDS011;30477;48.224;11.470;2023-04-07T13:46:37;9.90;;;7.60;;
44750;SDS011;30477;48.224;11.470;2023-04-07T13:49:03;10.63;;;7.13;;
44750;SDS011;30477;48.224;11.470;2023-04-07T13:51:28;8.50;;;6.90;;
44750;SDS011;30477;48.224;11.470;2023-04-07T13:53:53;9.33;;;7.00;;
44750;SDS011;30477;48.224;11.470;2023-04-07T13:56:19;8.43;;;6.83;;
44750;SDS011;30477;48.224;11.470;2023-04-07T13:58:46;9.30;;;7.28;;
44750;SDS011;30477;48.224;11.470;2023-04-07T14:01:11;8.07;;;6.88;;
44750;SDS011;30477;48.224;11.470;2023-04-07T14:03:37;9.00;;;7.40;;
44750;SDS011;30477;48.224;11.470;2023-04-07T14:06:02;8.63;;;7.13;;
44750;SDS011;30477;48.224;11.470;2023-04-07T14:08:28;9.87;;;7.43;;
44750;SDS011;30477;48.224;11.470;2023-04-07T14:10:53;7.93;;;6.73;;
44750;SDS011;30477;48.224;11.470;2023-04-07T14:13:19;10.13;;;7.53;;
44750;SDS011;30477;48.224;11.470;2023-04-07T14:15:44;7.67;;;6.60;;
44750;SDS011;30477;48.224;11.470;2023-04-07T14:18:10;10.60;;;7.50;;
44750;SDS011;30477;48.224;11.470;2023-04-07T14:20:35;8.40;;;6.63;;
44750;SDS011;30477;48.224;11.470;2023-04-07T14:23:01;8.03;;;6.37;;
44750;SDS011;30477;48.224;11.470;2023-04-07T14:25:26;10.40;;;6.53;;
44750;SDS011;30477;48.224;11.470;2023-04-07T14:27:51;9.53;;;6.40;;
44750;SDS011;30477;48.224;11.470;2023-04-07T14:30:17;7.70;;;6.90;;
44750;SDS011;30477;48.224;11.470;2023-04-07T14:32:43;9.47;;;7.23;;
44750;SDS011;30477;48.224;11.470;2023-04-07T14:35:08;8.00;;;7.13;;
44750;SDS011;30477;48.224;11.470;2023-04-07T14:37:34;8.13;;;6.90;;
44750;SDS011;30477;48.224;11.470;2023-04-07T14:40:00;8.80;;;6.80;;
44750;SDS011;30477;48.224;11.470;2023-04-07T14:42:27;8.38;;;7.05;;
44750;SDS011;30477;48.224;11.470;2023-04-07T14:44:53;9.30;;;7.20;;
44750;SDS011;30477;48.224;11.470;2023-04-07T14:47:19;8.75;;;7.22;;
44750;SDS011;30477;48.224;11.470;2023-04-07T14:49:45;8.03;;;6.93;;
44750;SDS011;30477;48.224;11.470;2023-04-07T14:52:10;9.23;;;6.80;;
44750;SDS011;30477;48.224;11.470;2023-04-07T14:54:37;8.93;;;6.85;;
44750;SDS011;30477;48.224;11.470;2023-04-07T14:57:04;8.07;;;6.87;;
44750;SDS011;30477;48.224;11.470;2023-04-07T14:59:29;9.23;;;6.40;;
44750;SDS011;30477;48.224;11.470;2023-04-07T15:01:55;9.03;;;6.33;;
44750;SDS011;30477;48.224;11.470;2023-04-07T15:04:20;7.40;;;6.63;;
44750;SDS011;30477;48.224;11.470;2023-04-07T15:06:45;8.87;;;6.87;;
44750;SDS011;30477;48.224;11.470;2023-04-07T15:09:11;8.13;;;6.78;;
44750;SDS011;30477;48.224;11.470;2023-04-07T15:11:36;8.20;;;6.53;;